Time;durP1;ratioP1;P1;durP2;ratioP2;P2;SDS_P1;SDS_P2;PMS_P1;PMS_P2;Temp;Humidity;BMP_temperature;BMP_pressure;BME280_temperature;BME280_humidity;BME280_pressure;Samples;Min_cycle;Max_cycle;Signal;HPM_P1;HPM_P2
2021/01/04 00:00:41;;;;;;;10.88;6.78;;;;;;;2.67;100.00;101748.75;4817388;29;20057;-80
2021/01/04 00:03:32;;;;;;;11.38;6.72;;;;;;;2.68;100.00;101750.50;4841433;29;20059;-79
2021/01/04 00:06:12;;;;;;;10.50;6.90;;;;;;;2.71;100.00;101742.63;4846088;29;20042;-79
2021/01/04 00:09:00;;;;;;;11.70;6.75;;;;;;;2.70;100.00;101738.28;4844403;29;20037;-80
2021/01/04 00:11:38;;;;;;;11.18;6.90;;;;;;;2.71;100.00;101738.31;4843127;29;20041;-79
2021/01/04 00:14:22;;;;;;;10.25;6.28;;;;;;;2.74;100.00;101743.53;4841167;29;20037;-80
2021/01/04 00:16:56;;;;;;;9.88;6.68;;;;;;;2.68;100.00;101740.03;4839717;29;20049;-80
2021/01/04 00:19:35;;;;;;;13.00;7.40;;;;;;;2.75;100.00;101736.56;4843595;29;20064;-80
2021/01/04 00:22:18;;;;;;;12.15;7.32;;;;;;;2.77;100.00;101729.63;4840256;29;20038;-80
2021/01/04 00:25:12;;;;;;;15.00;7.40;;;;;;;2.75;100.00;101736.56;4820680;29;20102;-80
2021/01/04 00:28:02;;;;;;;12.60;7.13;;;;;;;2.70;100.00;101730.47;4840920;29;20147;-80
2021/01/04 00:30:43;;;;;;;14.82;7.45;;;;;;;2.71;100.00;101738.31;4821745;29;20025;-80
2021/01/04 00:33:20;;;;;;;13.32;8.02;;;;;;;2.75;100.00;101724.38;4838531;29;20041;-79
2021/01/04 00:35:52;;;;;;;13.30;8.30;;;;;;;2.80;100.00;101727.88;4820460;29;20141;-80
2021/01/04 00:38:35;;;;;;;10.95;7.15;;;;;;;2.77;100.00;101727.88;4822536;29;20598;-80
2021/01/04 00:41:07;;;;;;;12.68;7.57;;;;;;;2.75;100.00;101724.38;4838071;29;20026;-80
2021/01/04 00:43:40;;;;;;;15.23;7.25;;;;;;;2.73;100.00;101715.69;4836769;29;20048;-81
2021/01/04 00:46:06;;;;;;;11.20;7.18;;;;;;;2.74;100.00;101714.81;4859826;29;20073;-79
2021/01/04 00:48:47;;;;;;;14.65;7.20;;;;;;;2.76;100.00;101715.72;4858800;29;20021;-79
2021/01/04 00:51:38;;;;;;;12.35;7.97;;;;;;;2.72;100.00;101713.94;4846495;29;20026;-80
2021/01/04 00:54:27;;;;;;;10.63;7.15;;;;;;;2.75;100.00;101718.28;4822540;29;20029;-80
2021/01/04 00:57:09;;;;;;;11.40;7.82;;;;;;;2.78;100.00;101713.09;4836155;29;20030;-80
2021/01/04 00:59:48;;;;;;;12.77;7.45;;;;;;;2.75;100.00;101713.06;4818843;29;20461;-79
2021/01/04 01:02:34;;;;;;;15.00;7.88;;;;;;;2.69;100.00;101715.69;4816212;29;20036;-80
2021/01/04 01:05:15;;;;;;;13.68;8.00;;;;;;;2.73;100.00;101712.22;4841471;29;20113;-80
2021/01/04 01:08:06;;;;;;;14.98;7.00;;;;;;;2.70;100.00;101707.84;4841331;29;20025;-79
2021/01/04 01:10:43;;;;;;;17.50;8.05;;;;;;;2.65;100.00;101708.72;4840566;29;20140;-79
2021/01/04 01:13:34;;;;;;;12.98;7.68;;;;;;;2.70;100.00;101713.06;4841136;29;20026;-80
2021/01/04 01:16:20;;;;;;;14.65;8.95;;;;;;;2.67;100.00;101710.47;4847330;29;20038;-80
2021/01/04 01:19:32;;;;;;;13.38;7.20;;;;;;;2.65;100.00;101708.72;4828664;29;20037;-80
2021/01/04 01:22:01;;;;;;;11.63;7.03;;;;;;;2.73;100.00;101707.00;4770477;30;20043;-79
2021/01/04 01:24:26;;;;;;;16.80;8.85;;;;;;;2.64;100.00;101713.06;4853105;29;20037;-80
2021/01/04 01:27:23;;;;;;;14.57;7.97;;;;;;;2.63;100.00;101711.31;4862394;29;20026;-79
2021/01/04 01:30:33;;;;;;;16.58;8.18;;;;;;;2.56;100.00;101705.22;4862518;29;20042;-79
2021/01/04 01:33:24;;;;;;;12.55;7.88;;;;;;;2.57;100.00;101711.31;4847079;29;20105;-78
2021/01/04 01:36:03;;;;;;;9.85;6.50;;;;;;;2.61;100.00;101713.06;4841328;29;20869;-79
2021/01/04 01:38:52;;;;;;;11.40;7.25;;;;;;;2.63;100.00;101711.31;4818813;29;20125;-79
2021/01/04 01:41:26;;;;;;;13.80;8.38;;;;;;;2.70;100.00;101714.81;4835705;29;20029;-80
2021/01/04 01:44:09;;;;;;;11.63;7.85;;;;;;;2.67;100.00;101707.00;4836730;29;20068;-80
2021/01/04 01:46:51;;;;;;;14.55;8.77;;;;;;;2.60;100.00;101712.16;4838362;29;20071;-80
2021/01/04 01:49:36;;;;;;;14.50;7.47;;;;;;;2.61;100.00;101715.69;4840544;29;20034;-80
2021/01/04 01:52:27;;;;;;;13.70;7.78;;;;;;;2.67;100.00;101715.69;4838112;29;20045;-80
2021/01/04 01:55:10;;;;;;;11.13;7.07;;;;;;;2.64;100.00;101715.66;4842590;29;20094;-80
2021/01/04 01:58:00;;;;;;;12.57;6.93;;;;;;;2.63;100.00;101715.69;4822508;29;20075;-80
2021/01/04 02:00:36;;;;;;;11.48;6.97;;;;;;;2.67;100.00;101720.91;4838993;29;20044;-80
2021/01/04 02:03:09;;;;;;;10.77;7.13;;;;;;;2.62;100.00;101716.53;4824353;29;20037;-80
2021/01/04 02:06:06;;;;;;;9.07;6.50;;;;;;;2.67;100.00;101720.91;4836094;29;20175;-79
2021/01/04 02:08:39;;;;;;;12.05;6.63;;;;;;;2.63;100.00;101724.38;4836404;29;20076;-79
2021/01/04 02:11:14;;;;;;;13.18;6.82;;;;;;;2.59;100.00;101712.19;4819684;29;20045;-79
2021/01/04 02:13:57;;;;;;;12.43;7.03;;;;;;;2.59;100.00;101700.00;4841391;29;20112;-79
2021/01/04 02:16:50;;;;;;;10.18;6.63;;;;;;;2.69;100.00;101708.72;4840875;29;20034;-79
2021/01/04 02:19:36;;;;;;;11.13;7.35;;;;;;;2.64;100.00;101702.63;4843317;29;20120;-79
2021/01/04 02:22:09;;;;;;;10.65;6.90;;;;;;;2.63;100.00;101708.72;4825798;29;20041;-79
2021/01/04 02:24:34;;;;;;;11.60;7.00;;;;;;;2.59;100.00;101696.53;4822374;29;20040;-79
2021/01/04 02:27:07;;;;;;;12.45;6.32;;;;;;;2.65;100.00;101709.56;4837470;29;20034;-79
2021/01/04 02:29:34;;;;;;;10.98;6.68;;;;;;;2.60;100.00;101709.56;4837478;29;20042;-79
2021/01/04 02:32:03;;;;;;;11.15;6.45;;;;;;;2.65;100.00;101709.56;4837072;29;20030;-79
2021/01/04 02:34:36;;;;;;;10.10;7.03;;;;;;;2.58;100.00;101708.69;4823164;29;20049;-79
2021/01/04 02:37:03;;;;;;;12.93;6.97;;;;;;;2.57;100.00;101704.34;4836057;29;20038;-79
2021/01/04 02:39:46;;;;;;;13.05;7.18;;;;;;;2.59;100.00;101714.78;4839605;29;20677;-79
2021/01/04 02:42:20;;;;;;;11.75;7.47;;;;;;;2.58;100.00;101708.69;4825931;29;20044;-79
2021/01/04 02:44:46;;;;;;;9.52;6.18;;;;;;;2.59;100.00;101704.34;4842050;29;20033;-79
2021/01/04 02:47:20;;;;;;;9.80;6.68;;;;;;;2.54;100.00;101711.28;4841326;29;20419;-79
2021/01/04 02:50:00;;;;;;;8.38;6.18;;;;;;;2.53;100.00;101707.81;4835922;29;20044;-79
2021/01/04 02:52:59;;;;;;;11.27;6.90;;;;;;;2.50;100.00;101712.16;4837038;29;20470;-79
2021/01/04 02:55:33;;;;;;;11.82;7.15;;;;;;;2.55;100.00;101715.63;4834882;29;20126;-80
2021/01/04 02:58:08;;;;;;;10.00;7.18;;;;;;;2.55;100.00;101699.97;4827253;29;20432;-80
2021/01/04 03:00:34;;;;;;;10.35;6.72;;;;;;;2.57;100.00;101703.47;4824305;29;20033;-80
2021/01/04 03:03:04;;;;;;;9.73;6.75;;;;;;;2.51;100.00;101699.13;4839537;29;20061;-80
2021/01/04 03:05:30;;;;;;;10.32;6.95;;;;;;;2.52;100.00;101707.81;4838178;29;20033;-79
2021/01/04 03:07:59;;;;;;;9.80;6.57;;;;;;;2.48;100.00;101696.50;4842705;29;20259;-80
2021/01/04 03:10:31;;;;;;;9.27;6.03;;;;;;;2.58;100.00;101697.41;4839045;29;20102;-80
2021/01/04 03:13:02;;;;;;;11.45;6.97;;;;;;;2.48;100.00;101698.25;4841694;29;20036;-79
2021/01/04 03:15:50;;;;;;;10.38;6.10;;;;;;;2.47;100.00;101699.97;4826090;29;20080;-80
2021/01/04 03:18:58;;;;;;;9.48;6.60;;;;;;;2.46;100.00;101692.13;4841400;29;20042;-80
2021/01/04 03:21:26;;;;;;;8.85;5.95;;;;;;;2.50;100.00;101706.94;4764632;30;20043;-81
2021/01/04 03:23:53;;;;;;;8.57;6.07;;;;;;;2.48;100.00;101695.63;4762112;30;20040;-81
2021/01/04 03:26:21;;;;;;;8.20;6.38;;;;;;;2.42;100.00;101696.50;4748630;30;20555;-81
2021/01/04 03:28:47;;;;;;;9.57;6.20;;;;;;;2.48;100.00;101693.88;4764512;30;20417;-80
2021/01/04 03:31:13;;;;;;;10.43;7.25;;;;;;;2.43;100.00;101695.63;4764564;30;20044;-80
2021/01/04 03:33:38;;;;;;;8.98;6.63;;;;;;;2.44;100.00;101694.75;4750269;30;20048;-80
2021/01/04 03:36:05;;;;;;;9.45;6.53;;;;;;;2.46;100.00;101694.72;4763838;30;20048;-80
2021/01/04 03:38:32;;;;;;;10.35;6.72;;;;;;;2.48;100.00;101699.09;4761727;30;20051;-79
2021/01/04 03:40:58;;;;;;;11.70;6.93;;;;;;;2.41;100.00;101689.53;4766078;30;20042;-80
2021/01/04 03:43:23;;;;;;;10.43;6.53;;;;;;;2.40;100.00;101695.59;4769543;30;20471;-80
2021/01/04 03:45:48;;;;;;;9.35;6.05;;;;;;;2.42;100.00;101695.63;4758379;30;20151;-80
2021/01/04 03:48:14;;;;;;;10.02;6.70;;;;;;;2.41;100.00;101691.25;4753045;30;20063;-80
2021/01/04 03:50:39;;;;;;;10.63;6.93;;;;;;;2.41;100.00;101691.25;4768841;30;20035;-80
2021/01/04 03:53:05;;;;;;;9.52;6.40;;;;;;;2.44;100.00;101686.03;4835833;29;20038;-80
2021/01/04 03:55:30;;;;;;;10.20;6.13;;;;;;;2.46;100.00;101689.50;4841491;29;20530;-80
2021/01/04 03:57:56;;;;;;;9.25;5.78;;;;;;;2.42;100.00;101687.78;4842836;29;20037;-79
2021/01/04 04:00:22;;;;;;;8.15;6.03;;;;;;;2.36;100.00;101690.34;4838595;29;20038;-80
2021/01/04 04:02:48;;;;;;;9.82;6.07;;;;;;;2.39;100.00;101691.25;4848441;29;20061;-78
2021/01/04 04:05:15;;;;;;;10.15;5.65;;;;;;;2.42;100.00;101690.41;4854730;29;20059;-79
2021/01/04 04:07:41;;;;;;;9.40;5.95;;;;;;;2.38;100.00;101689.50;4850419;29;20057;-79
2021/01/04 04:10:07;;;;;;;9.30;6.45;;;;;;;2.41;100.00;101688.63;4842811;29;20097;-79
2021/01/04 04:12:33;;;;;;;8.98;5.70;;;;;;;2.44;100.00;101693.88;4853324;29;20577;-80
2021/01/04 04:14:58;;;;;;;11.65;6.03;;;;;;;2.44;100.00;101684.31;4825696;29;20026;-80
2021/01/04 04:17:24;;;;;;;8.82;5.82;;;;;;;2.44;100.00;101684.31;4848866;29;20265;-80
2021/01/04 04:19:50;;;;;;;9.07;5.40;;;;;;;2.46;100.00;101686.91;4827879;29;20041;-80
2021/01/04 04:22:17;;;;;;;10.15;5.47;;;;;;;2.47;100.00;101676.50;4844750;29;20339;-79
2021/01/04 04:24:44;;;;;;;8.75;5.75;;;;;;;2.39;100.00;101680.81;4839073;29;20034;-80
2021/01/04 04:27:10;;;;;;;8.10;5.68;;;;;;;2.39;100.00;101685.16;4841056;29;20053;-80
2021/01/04 04:29:40;;;;;;;9.65;6.43;;;;;;;2.37;100.00;101681.69;4827843;29;20034;-80
2021/01/04 04:32:07;;;;;;;8.70;5.82;;;;;;;2.43;100.00;101685.19;4840759;29;20034;-80
2021/01/04 04:34:34;;;;;;;8.77;6.45;;;;;;;2.37;100.00;101690.38;4842259;29;20518;-80
2021/01/04 04:36:59;;;;;;;7.82;5.43;;;;;;;2.43;100.00;101689.53;4842308;29;20073;-80
2021/01/04 04:39:24;;;;;;;7.15;5.50;;;;;;;2.42;100.00;101690.41;4839729;29;20073;-80
2021/01/04 04:41:53;;;;;;;9.57;5.70;;;;;;;2.39;100.00;101691.25;4841457;29;20056;-79
2021/01/04 04:44:40;;;;;;;8.43;5.85;;;;;;;2.37;100.00;101693.00;4836005;29;20114;-80
2021/01/04 04:47:34;;;;;;;8.70;6.15;;;;;;;2.34;100.00;101686.00;4837874;29;20281;-80
2021/01/04 04:50:08;;;;;;;7.60;5.65;;;;;;;2.36;100.00;101693.88;4846496;29;20038;-80
2021/01/04 04:53:01;;;;;;;7.78;5.93;;;;;;;2.36;100.00;101688.66;4842660;29;20515;-80
2021/01/04 04:55:39;;;;;;;9.18;6.13;;;;;;;2.38;100.00;101691.25;4841224;29;20110;-80
2021/01/04 04:58:46;;;;;;;7.07;5.07;;;;;;;2.38;100.00;101694.72;4841887;29;20034;-80
2021/01/04 05:01:14;;;;;;;9.40;5.53;;;;;;;2.36;100.00;101696.47;4838541;29;20043;-80
2021/01/04 05:03:53;;;;;;;8.25;5.38;;;;;;;2.40;100.00;101692.97;4841819;29;20030;-80
2021/01/04 05:06:35;;;;;;;9.73;6.53;;;;;;;2.38;100.00;101697.34;4842748;29;20028;-80
2021/01/04 05:09:24;;;;;;;7.82;5.82;;;;;;;2.39;100.00;101700.81;4844714;29;20038;-80
2021/01/04 05:12:10;;;;;;;9.63;6.43;;;;;;;2.34;100.00;101701.66;4844307;29;20030;-80
2021/01/04 05:14:42;;;;;;;8.95;6.72;;;;;;;2.38;100.00;101710.38;4843676;29;20557;-79
2021/01/04 05:17:27;;;;;;;8.77;7.35;;;;;;;2.36;100.00;101713.84;4847923;29;20588;-79
2021/01/04 05:20:11;;;;;;;11.65;7.05;;;;;;;2.30;100.00;101718.16;4849902;29;20129;-80
2021/01/04 05:23:19;;;;;;;10.63;7.95;;;;;;;2.31;100.00;101712.13;4847436;29;20037;-80
2021/01/04 05:26:21;;;;;;;9.32;6.68;;;;;;;2.40;100.00;101718.22;4837954;29;20022;-80
2021/01/04 05:29:12;;;;;;;11.60;7.43;;;;;;;2.42;100.00;101719.97;4822544;29;20049;-80
2021/01/04 05:32:04;;;;;;;13.38;7.38;;;;;;;2.37;100.00;101718.22;4821070;29;20042;-79
2021/01/04 05:34:41;;;;;;;10.55;7.35;;;;;;;2.36;100.00;101716.44;4843357;29;20073;-80
2021/01/04 05:37:28;;;;;;;10.98;7.55;;;;;;;2.41;100.00;101720.84;4844811;29;20095;-80
2021/01/04 05:40:12;;;;;;;10.57;7.15;;;;;;;2.42;100.00;101721.72;4823884;29;20030;-79
2021/01/04 05:43:04;;;;;;;12.10;7.47;;;;;;;2.40;100.00;101708.63;4841709;29;20402;-79
2021/01/04 05:45:39;;;;;;;11.13;7.55;;;;;;;2.44;100.00;101717.34;4841270;29;20121;-79
2021/01/04 05:48:16;;;;;;;10.10;7.50;;;;;;;2.47;100.00;101715.63;4845812;29;20041;-79
2021/01/04 05:51:02;;;;;;;11.00;7.78;;;;;;;2.49;100.00;101723.47;4845094;29;20041;-79
2021/01/04 05:53:28;;;;;;;9.38;6.70;;;;;;;2.53;100.00;101723.47;4826318;29;20491;-79
2021/01/04 05:55:58;;;;;;;11.45;7.60;;;;;;;2.50;100.00;101723.44;4826971;29;20053;-80
2021/01/04 05:58:34;;;;;;;10.13;7.50;;;;;;;2.53;100.00;101725.22;4845383;29;20037;-79
2021/01/04 06:01:08;;;;;;;8.85;6.40;;;;;;;2.51;100.00;101727.84;4848452;29;20050;-80
2021/01/04 06:03:33;;;;;;;10.63;8.05;;;;;;;2.53;100.00;101730.44;4842640;29;20052;-79
2021/01/04 06:06:20;;;;;;;13.75;8.32;;;;;;;2.50;100.00;101722.59;4841254;29;20117;-80
2021/01/04 06:08:46;;;;;;;9.80;6.72;;;;;;;2.52;100.00;101723.47;4837400;29;20041;-79
2021/01/04 06:11:13;;;;;;;9.18;6.63;;;;;;;2.53;100.00;101720.88;4817142;29;20415;-81
2021/01/04 06:13:45;;;;;;;9.20;6.72;;;;;;;2.50;100.00;101725.19;4840580;29;20124;-80
2021/01/04 06:16:10;;;;;;;13.02;7.97;;;;;;;2.55;100.00;101729.56;4840047;29;20084;-80
2021/01/04 06:18:43;;;;;;;10.13;6.93;;;;;;;2.56;100.00;101720.88;4839680;29;20491;-79
2021/01/04 06:21:29;;;;;;;8.10;6.20;;;;;;;2.55;100.00;101731.28;4838332;29;20038;-79
2021/01/04 06:23:59;;;;;;;9.68;6.75;;;;;;;2.58;100.00;101736.53;4846670;29;20109;-79
2021/01/04 06:26:25;;;;;;;10.05;6.78;;;;;;;2.57;100.00;101740.91;4843703;29;20029;-79
2021/01/04 06:28:55;;;;;;;10.70;7.13;;;;;;;2.57;100.00;101740.03;4846987;29;20646;-81
2021/01/04 06:31:31;;;;;;;10.30;6.68;;;;;;;2.55;100.00;101745.22;4844858;29;20080;-80
2021/01/04 06:33:59;;;;;;;11.93;7.03;;;;;;;2.54;100.00;101743.47;4840981;29;20037;-80
2021/01/04 06:36:25;;;;;;;9.82;6.55;;;;;;;2.63;100.00;101747.00;4840176;29;20093;-80
2021/01/04 06:38:52;;;;;;;11.55;6.82;;;;;;;2.55;100.00;101740.00;4838066;29;20033;-80
2021/01/04 06:41:29;;;;;;;11.70;6.97;;;;;;;2.56;100.00;101743.47;4838290;29;20037;-80
2021/01/04 06:43:54;;;;;;;10.32;7.40;;;;;;;2.54;100.00;101750.44;4838504;29;20465;-79
2021/01/04 06:46:42;;;;;;;11.57;7.25;;;;;;;2.54;100.00;101750.44;4836560;29;20367;-80
2021/01/04 06:49:15;;;;;;;11.88;7.78;;;;;;;2.54;100.00;101755.66;4833628;29;20041;-79
2021/01/04 06:52:13;;;;;;;10.95;6.50;;;;;;;2.53;100.00;101760.00;4818674;29;20034;-80
2021/01/04 06:55:17;;;;;;;11.88;7.80;;;;;;;2.53;100.00;101754.78;4843026;29;20058;-80
2021/01/04 06:57:51;;;;;;;13.10;7.20;;;;;;;2.51;100.00;101753.94;4843034;29;20068;-80
2021/01/04 07:00:29;;;;;;;9.25;6.68;;;;;;;2.50;100.00;101759.13;4841504;29;20065;-80
2021/01/04 07:03:06;;;;;;;11.35;7.60;;;;;;;2.51;100.00;101753.94;4835318;29;20400;-80
2021/01/04 07:05:56;;;;;;;11.63;7.78;;;;;;;2.53;100.00;101761.75;4839439;29;21267;-80
2021/01/04 07:08:55;;;;;;;10.98;7.40;;;;;;;2.52;100.00;101760.88;4839411;29;20066;-80
2021/01/04 07:11:30;;;;;;;10.20;7.75;;;;;;;2.54;100.00;101760.88;4812808;29;20432;-80
2021/01/04 07:14:22;;;;;;;10.38;6.82;;;;;;;2.50;100.00;101764.34;4839700;29;20044;-79
2021/01/04 07:17:09;;;;;;;15.40;8.88;;;;;;;2.55;100.00;101766.09;4833320;29;20492;-80
2021/01/04 07:19:59;;;;;;;11.15;7.55;;;;;;;2.51;100.00;101764.38;4841193;29;20042;-80
2021/01/04 07:22:33;;;;;;;11.32;7.43;;;;;;;2.59;100.00;101767.84;4793399;29;20088;-80
2021/01/04 07:25:22;;;;;;;8.57;6.47;;;;;;;2.60;100.00;101771.34;4840387;29;20830;-80
2021/01/04 07:27:54;;;;;;;13.15;7.75;;;;;;;2.64;100.00;101767.00;4841167;29;20028;-79
2021/01/04 07:30:42;;;;;;;12.77;6.88;;;;;;;2.59;100.00;101770.47;4801232;29;20041;-79
2021/01/04 07:33:43;;;;;;;11.43;7.00;;;;;;;2.57;100.00;101773.94;4828387;29;20121;-78
2021/01/04 07:36:27;;;;;;;10.95;7.13;;;;;;;2.57;100.00;101772.22;4844569;29;20356;-79
2021/01/04 07:39:03;;;;;;;10.05;6.90;;;;;;;2.57;100.00;101774.81;4839974;29;20102;-79
2021/01/04 07:41:48;;;;;;;10.35;6.55;;;;;;;2.58;100.00;101776.56;4839602;29;20026;-79
2021/01/04 07:44:32;;;;;;;10.02;6.40;;;;;;;2.63;100.00;101776.56;4832940;29;20112;-82
2021/01/04 07:47:26;;;;;;;10.82;7.68;;;;;;;2.65;100.00;101780.03;4832796;29;20494;-80
2021/01/04 07:50:22;;;;;;;12.82;7.53;;;;;;;2.60;100.00;101781.78;4838157;29;20042;-79
2021/01/04 07:53:00;;;;;;;10.88;6.97;;;;;;;2.66;100.00;101784.44;4840083;29;20537;-80
2021/01/04 07:55:50;;;;;;;12.90;6.75;;;;;;;2.63;100.00;101781.78;4844639;29;20481;-80
2021/01/04 07:58:45;;;;;;;18.60;7.72;;;;;;;2.60;100.00;101793.09;4819314;29;20038;-79
2021/01/04 08:01:47;;;;;;;9.48;6.10;;;;;;;2.54;100.00;101794.81;4822497;29;20038;-79
2021/01/04 08:04:35;;;;;;;11.38;7.93;;;;;;;2.63;100.00;101789.63;4837694;29;20069;-79
2021/01/04 08:07:12;;;;;;;11.98;6.82;;;;;;;2.57;100.00;101794.84;4839924;29;20034;-79
2021/01/04 08:10:09;;;;;;;13.38;7.05;;;;;;;2.61;100.00;101793.97;4834423;29;20041;-80
2021/01/04 08:12:49;;;;;;;9.15;6.03;;;;;;;2.52;100.00;101789.59;4784237;29;20066;-80
2021/01/04 08:15:32;;;;;;;11.98;6.90;;;;;;;2.61;100.00;101799.19;4798745;29;20087;-80
2021/01/04 08:18:04;;;;;;;9.77;6.40;;;;;;;2.57;100.00;101795.69;4783343;29;20070;-80
2021/01/04 08:20:30;;;;;;;11.27;7.75;;;;;;;2.58;100.00;101799.19;4800578;29;20130;-80
2021/01/04 08:23:16;;;;;;;10.63;6.65;;;;;;;2.64;100.00;101804.41;4801447;29;20055;-80
2021/01/04 08:25:52;;;;;;;10.80;6.13;;;;;;;2.67;100.00;101812.25;4785464;29;20051;-79
2021/01/04 08:28:43;;;;;;;9.75;5.88;;;;;;;2.72;100.00;101813.16;4806407;29;20039;-80
2021/01/04 08:31:30;;;;;;;10.38;6.43;;;;;;;2.68;100.00;101814.00;4788853;29;20039;-81
2021/01/04 08:34:01;;;;;;;8.93;6.15;;;;;;;2.68;100.00;101813.13;4785111;29;20187;-79
2021/01/04 08:36:45;;;;;;;11.38;6.28;;;;;;;2.68;100.00;101826.19;4786675;29;20041;-80
2021/01/04 08:39:15;;;;;;;10.30;7.13;;;;;;;2.73;100.00;101829.69;4802129;29;20506;-82
2021/01/04 08:41:42;;;;;;;9.07;6.20;;;;;;;2.79;100.00;101830.56;4810245;29;20075;-81
2021/01/04 08:44:19;;;;;;;12.75;5.90;;;;;;;2.78;100.00;101825.34;4830657;29;21391;-81
2021/01/04 08:46:46;;;;;;;12.38;6.50;;;;;;;2.75;100.00;101836.63;4844200;29;20065;-81
2021/01/04 08:49:15;;;;;;;12.23;7.80;;;;;;;2.74;100.00;101831.44;4842246;29;20494;-81
2021/01/04 08:51:41;;;;;;;13.60;6.97;;;;;;;2.82;100.00;101841.03;4825710;29;20038;-80
2021/01/04 08:54:10;;;;;;;8.15;6.18;;;;;;;2.84;100.00;101843.63;4825144;29;20083;-81
2021/01/04 08:56:39;;;;;;;12.07;7.53;;;;;;;2.85;100.00;101842.78;4852747;29;20041;-81
2021/01/04 08:59:13;;;;;;;9.98;6.47;;;;;;;2.89;100.00;101854.97;4829293;29;20034;-80
2021/01/04 09:01:46;;;;;;;10.93;6.60;;;;;;;2.91;100.00;101845.38;4837497;29;20550;-76
2021/01/04 09:04:22;;;;;;;10.50;6.78;;;;;;;2.91;100.00;101849.75;4834702;29;20073;-78
2021/01/04 09:07:01;;;;;;;10.25;6.80;;;;;;;2.98;100.00;101848.91;4841138;29;20483;-79
2021/01/04 09:09:33;;;;;;;9.80;6.88;;;;;;;3.00;100.00;101849.78;4839852;29;20067;-77
2021/01/04 09:12:13;;;;;;;10.18;6.60;;;;;;;2.98;100.00;101849.78;4834619;29;20443;-78
2021/01/04 09:14:45;;;;;;;15.23;6.78;;;;;;;2.91;100.00;101853.22;4814780;29;20042;-76
2021/01/04 09:17:25;;;;;;;11.20;7.47;;;;;;;2.97;100.00;101852.41;4837094;29;20046;-78
2021/01/04 09:20:03;;;;;;;10.63;7.13;;;;;;;2.98;100.00;101856.75;4835840;29;20105;-76
2021/01/04 09:22:29;;;;;;;9.15;6.55;;;;;;;3.07;100.00;101852.44;4831798;29;20076;-77
2021/01/04 09:24:54;;;;;;;10.30;7.57;;;;;;;3.06;100.00;101855.91;4835229;29;20141;-76
2021/01/04 09:27:22;;;;;;;11.27;6.57;;;;;;;3.04;100.00;101860.25;4835191;29;20030;-76
2021/01/04 09:29:52;;;;;;;12.20;6.90;;;;;;;3.09;100.00;101857.66;4831912;29;20125;-75
2021/01/04 09:32:26;;;;;;;9.57;6.55;;;;;;;3.06;100.00;101855.91;4833523;29;20128;-75
2021/01/04 09:34:51;;;;;;;12.25;7.70;;;;;;;3.19;100.00;101858.53;4831689;29;20501;-76
2021/01/04 09:37:23;;;;;;;10.48;6.95;;;;;;;3.16;100.00;101858.53;4833806;29;20046;-75
2021/01/04 09:39:52;;;;;;;14.05;7.25;;;;;;;3.13;100.00;101868.97;4830721;29;20041;-75
2021/01/04 09:42:28;;;;;;;13.85;7.47;;;;;;;3.15;100.00;101862.88;4834613;29;20053;-76
2021/01/04 09:44:53;;;;;;;;;;;;;;;3.10;100.00;101864.59;4812758;29;20094;-76
2021/01/04 09:47:32;;;;;;;11.20;6.07;;;;;;;3.10;100.00;101867.22;4834485;29;20373;-76
2021/01/04 09:50:12;;;;;;;9.93;6.32;;;;;;;3.10;100.00;101862.00;4830941;29;20030;-75
2021/01/04 09:52:46;;;;;;;10.70;6.13;;;;;;;3.10;100.00;101869.84;4831760;29;20045;-76
2021/01/04 09:55:13;;;;;;;15.02;8.05;;;;;;;3.01;100.00;101868.09;4829625;29;20769;-76
2021/01/04 09:57:44;;;;;;;10.10;6.78;;;;;;;3.01;100.00;101862.88;4834509;29;20080;-77
2021/01/04 10:00:23;;;;;;;9.48;6.88;;;;;;;3.03;100.00;101871.56;4834141;29;20034;-77
2021/01/04 10:02:58;;;;;;;6.97;5.03;;;;;;;2.95;100.00;101875.88;4832886;29;20038;-76
2021/01/04 10:05:30;;;;;;;10.00;6.30;;;;;;;3.08;100.00;101876.81;4830520;29;20036;-77
2021/01/04 10:07:56;;;;;;;11.32;6.63;;;;;;;3.01;100.00;101869.81;4834678;29;21094;-75
2021/01/04 10:10:22;;;;;;;9.73;6.72;;;;;;;2.93;100.00;101882.84;4834949;29;20091;-75
2021/01/04 10:12:47;;;;;;;12.60;6.70;;;;;;;2.84;100.00;101881.06;4834218;29;20034;-76
2021/01/04 10:15:23;;;;;;;9.73;6.22;;;;;;;2.96;100.00;101880.25;4832426;29;20034;-76
2021/01/04 10:18:02;;;;;;;9.15;6.47;;;;;;;2.88;100.00;101875.88;4833341;29;20034;-76
2021/01/04 10:20:41;;;;;;;9.23;6.32;;;;;;;2.90;100.00;101877.59;4837071;29;20033;-77
2021/01/04 10:23:37;;;;;;;10.82;6.47;;;;;;;2.89;100.00;101877.59;4831967;29;20037;-75
2021/01/04 10:26:03;;;;;;;10.98;7.00;;;;;;;3.01;100.00;101878.53;4831411;24;20089;-89
2021/01/04 10:28:31;;;;;;;16.67;7.15;;;;;;;3.02;100.00;101866.34;4820561;29;20068;-89
2021/01/04 10:31:19;;;;;;;12.70;7.18;;;;;;;3.03;100.00;101865.47;4822244;29;20053;-90
2021/01/04 10:33:45;;;;;;;13.68;6.82;;;;;;;2.98;100.00;101867.19;4820184;29;20091;-89
2021/01/04 10:36:13;;;;;;;11.43;7.18;;;;;;;3.14;100.00;101878.56;4816415;29;20031;-89
2021/01/04 10:38:43;;;;;;;11.18;7.15;;;;;;;3.05;100.00;101864.59;4818063;29;20890;-90
2021/01/04 10:41:15;;;;;;;11.95;7.22;;;;;;;3.19;100.00;101869.84;4824617;29;20073;-89
2021/01/04 10:43:48;;;;;;;10.57;6.95;;;;;;;3.17;100.00;101863.78;4820746;29;20106;-88
2021/01/04 10:46:37;;;;;;;10.30;6.10;;;;;;;3.16;100.00;101869.84;4826930;29;20117;-88
2021/01/04 10:49:27;;;;;;;12.68;7.30;;;;;;;3.12;100.00;101873.34;4825384;29;20031;-89
2021/01/04 10:51:54;;;;;;;12.35;6.53;;;;;;;3.11;100.00;101854.19;4814290;29;20038;-90
2021/01/04 10:54:23;;;;;;;8.48;6.10;;;;;;;3.17;100.00;101861.16;4825341;29;20030;-88
2021/01/04 10:57:06;;;;;;;11.18;7.10;;;;;;;3.22;100.00;101875.09;4822327;29;20470;-89
2021/01/04 10:59:53;;;;;;;13.35;7.10;;;;;;;3.22;100.00;101864.66;4825156;29;20026;-90
2021/01/04 11:02:20;;;;;;;9.48;7.20;;;;;;;3.20;100.00;101850.69;4813317;29;20034;-90
2021/01/04 11:04:55;;;;;;;13.30;6.60;;;;;;;3.28;100.00;101853.34;4751103;30;20160;-86
2021/01/04 11:07:50;;;;;;;11.90;7.35;;;;;;;3.26;100.00;101849.84;4742989;30;20044;-86
2021/01/04 11:10:27;;;;;;;16.33;6.18;;;;;;;3.38;100.00;101855.97;4696794;30;20071;-87
2021/01/04 11:12:59;;;;;;;10.02;6.90;;;;;;;3.37;100.00;101853.34;4700770;30;20054;-86
2021/01/04 11:16:25;;;;;;;8.98;6.13;;;;;;;3.31;100.00;101837.66;4699736;30;20041;-88
2021/01/04 11:19:01;;;;;;;10.88;6.55;;;;;;;3.30;100.00;101830.69;4632861;30;20042;-89
2021/01/04 11:21:40;;;;;;;9.60;6.50;;;;;;;3.34;100.00;101829.81;4624735;30;20054;-87
2021/01/04 11:24:11;;;;;;;10.98;7.32;;;;;;;3.26;100.00;101840.28;4641520;30;20067;-87
2021/01/04 11:27:28;;;;;;;9.02;6.03;;;;;;;3.21;100.00;101821.09;4629722;30;20078;-88
2021/01/04 11:30:21;;;;;;;8.75;5.15;;;;;;;3.32;100.00;101828.97;4559958;31;20065;-90
2021/01/04 11:33:44;;;;;;;9.00;5.70;;;;;;;3.37;100.00;101829.84;4539368;31;20034;-89
2021/01/04 11:36:20;;;;;;;11.10;6.45;;;;;;;3.35;100.00;101826.34;4518854;31;20793;-90
2021/01/04 11:38:46;;;;;;;9.00;5.53;;;;;;;3.36;100.00;101822.84;4495166;31;20063;-91
2021/01/04 11:41:15;;;;;;;8.77;5.55;;;;;;;3.36;100.00;101810.69;4530860;31;20058;-89
2021/01/04 11:43:42;;;;;;;6.65;4.97;;;;;;;3.46;100.00;101814.13;4528157;31;20133;-90
2021/01/04 11:46:28;;;;;;;8.27;5.18;;;;;;;3.55;100.00;101821.13;4529922;31;20660;-92
2021/01/04 11:48:56;;;;;;;10.52;4.95;;;;;;;3.50;100.00;101828.09;4557285;31;20060;-89
2021/01/04 11:51:22;;;;;;;8.07;5.20;;;;;;;3.46;100.00;101821.13;4591453;31;20538;-90
2021/01/04 11:53:50;;;;;;;6.68;5.28;;;;;;;3.52;100.00;101831.59;4589919;31;20053;-89
2021/01/04 11:56:17;;;;;;;11.45;6.05;;;;;;;3.39;100.00;101815.03;4635767;30;20039;-90
2021/01/04 11:58:46;;;;;;;8.55;5.05;;;;;;;3.35;100.00;101816.75;4634173;30;20047;-89
2021/01/04 12:01:33;;;;;;;9.63;5.20;;;;;;;3.27;100.00;101808.06;4629013;30;20066;-90
2021/01/04 12:04:05;;;;;;;9.00;4.50;;;;;;;3.27;100.00;101821.13;4635273;30;20087;-91
2021/01/04 12:06:56;;;;;;;9.00;5.57;;;;;;;3.23;100.00;101821.09;4641087;30;20058;-90